Time;durP1;ratioP1;P1;durP2;ratioP2;P2;SDS_P1;SDS_P2;PMS_P1;PMS_P2;Temp;Humidity;BMP_temperature;BMP_pressure;BME280_temperature;BME280_humidity;BME280_pressure;Samples;Min_cycle;Max_cycle;Signal;HPM_P1;HPM_P2
2022/07/20 00:00:58;;;;;;;;;2.00;2.00;;;;;;;;5273628;28;8791;-78
2022/07/20 00:03:30;;;;;;;;;2.00;2.00;;;;;;;;5274969;28;9507;-77
2022/07/20 00:06:19;;;;;;;;;1.00;1.00;;;;;;;;5262719;28;8889;-76
2022/07/20 00:11:58;;;;;;;;;1.00;1.00;;;;;;;;5254135;28;9565;-77
2022/07/20 00:14:29;;;;;;;;;1.50;1.50;;;;;;;;5251213;28;8798;-76
2022/07/20 00:17:00;;;;;;;;;1.00;1.00;;;;;;;;5248971;28;8791;-75
2022/07/20 00:19:32;;;;;;;;;1.50;1.50;;;;;;;;5246216;28;9575;-76
2022/07/20 00:22:03;;;;;;;;;1.25;1.25;;;;;;;;5246028;28;8775;-75
2022/07/20 00:24:34;;;;;;;;;1.25;1.25;;;;;;;;5246010;28;8829;-75
2022/07/20 00:27:05;;;;;;;;;1.00;1.00;;;;;;;;5227837;28;8834;-76
2022/07/20 00:29:36;;;;;;;;;1.25;1.25;;;;;;;;5245719;28;8793;-74
2022/07/20 00:32:07;;;;;;;;;2.00;2.00;;;;;;;;5246979;28;8894;-77
2022/07/20 00:34:39;;;;;;;;;1.50;1.50;;;;;;;;5244877;28;8771;-76
2022/07/20 00:37:10;;;;;;;;;2.00;2.00;;;;;;;;5212566;28;8783;-77
2022/07/20 00:39:41;;;;;;;;;1.25;1.25;;;;;;;;5246696;28;8871;-74
2022/07/20 00:42:12;;;;;;;;;1.00;1.00;;;;;;;;5249441;28;9683;-74
2022/07/20 00:45:03;;;;;;;;;1.25;1.25;;;;;;;;5246855;28;9630;-75
2022/07/20 00:47:34;;;;;;;;;1.50;1.50;;;;;;;;5228805;28;9724;-75
2022/07/20 00:50:06;;;;;;;;;1.00;1.00;;;;;;;;5228630;28;8787;-76
2022/07/20 00:52:37;;;;;;;;;1.50;1.50;;;;;;;;5245769;28;8775;-75
2022/07/20 00:55:08;;;;;;;;;0.00;0.00;;;;;;;;5262680;28;8780;-75
2022/07/20 00:57:39;;;;;;;;;0.50;0.50;;;;;;;;5265275;28;8805;-75
2022/07/20 01:00:10;;;;;;;;;1.00;1.00;;;;;;;;5249424;28;8858;-75
2022/07/20 01:03:00;;;;;;;;;0.00;0.00;;;;;;;;5234569;28;8818;-75
2022/07/20 01:05:31;;;;;;;;;1.00;1.00;;;;;;;;5245821;28;8799;-76
2022/07/20 01:08:21;;;;;;;;;1.00;1.00;;;;;;;;5246947;28;9518;-72
2022/07/20 01:11:11;;;;;;;;;0.00;0.00;;;;;;;;5245243;28;9526;-74
2022/07/20 01:13:42;;;;;;;;;1.00;1.00;;;;;;;;5228423;28;8811;-72
2022/07/20 01:16:13;;;;;;;;;1.00;1.00;;;;;;;;5246355;28;8787;-73
2022/07/20 01:19:02;;;;;;;;;0.25;0.25;;;;;;;;5245437;28;8787;-76
2022/07/20 01:21:40;;;;;;;;;1.00;1.00;;;;;;;;5228396;28;8786;-73
2022/07/20 01:24:12;;;;;;;;;0.75;0.75;;;;;;;;5254115;28;8835;-74
2022/07/20 01:26:44;;;;;;;;;2.00;2.00;;;;;;;;5228363;28;8799;-75
2022/07/20 01:29:15;;;;;;;;;1.00;1.00;;;;;;;;5244993;28;8799;-74
2022/07/20 01:31:46;;;;;;;;;0.75;0.75;;;;;;;;5244854;28;8776;-75
2022/07/20 01:34:19;;;;;;;;;2.00;2.00;;;;;;;;5264908;28;9550;-74
2022/07/20 01:37:08;;;;;;;;;1.25;1.25;;;;;;;;5252057;28;8807;-77
2022/07/20 01:39:39;;;;;;;;;0.50;0.50;;;;;;;;5265894;28;8772;-73
2022/07/20 01:42:10;;;;;;;;;1.00;1.00;;;;;;;;5263819;28;8776;-73
2022/07/20 01:44:41;;;;;;;;;1.00;1.00;;;;;;;;5249201;28;9515;-73
2022/07/20 01:47:30;;;;;;;;;1.50;1.50;;;;;;;;5265986;28;8785;-73
2022/07/20 01:50:02;;;;;;;;;2.00;2.00;;;;;;;;5232399;28;8804;-73
2022/07/20 01:52:34;;;;;;;;;1.00;1.00;;;;;;;;5227065;28;8795;-73
2022/07/20 01:55:05;;;;;;;;;1.25;1.25;;;;;;;;5228180;28;8834;-73
2022/07/20 01:57:36;;;;;;;;;1.50;1.50;;;;;;;;5244728;28;8927;-74
2022/07/20 02:00:08;;;;;;;;;0.00;0.00;;;;;;;;5244761;28;8897;-74
2022/07/20 02:02:42;;;;;;;;;1.75;1.75;;;;;;;;5228256;28;8791;-74
2022/07/20 02:05:13;;;;;;;;;0.75;0.75;;;;;;;;5227894;28;8787;-74
2022/07/20 02:08:03;;;;;;;;;1.25;1.25;;;;;;;;5254289;28;8831;-76
2022/07/20 02:10:34;;;;;;;;;1.75;1.75;;;;;;;;5269183;28;9502;-75
2022/07/20 02:13:05;;;;;;;;;1.00;1.00;;;;;;;;5248621;28;8860;-77
2022/07/20 02:16:14;;;;;;;;;0.25;0.25;;;;;;;;5235212;28;8808;-74
2022/07/20 02:18:46;;;;;;;;;1.00;1.00;;;;;;;;5231883;28;8775;-77
2022/07/20 02:21:19;;;;;;;;;0.50;0.50;;;;;;;;5249041;28;8803;-76
2022/07/20 02:23:51;;;;;;;;;1.00;1.00;;;;;;;;5231400;28;8825;-76
2022/07/20 02:26:22;;;;;;;;;1.00;1.00;;;;;;;;5231864;28;9517;-74
2022/07/20 02:29:12;;;;;;;;;2.00;2.00;;;;;;;;5234116;28;8795;-74
2022/07/20 02:31:43;;;;;;;;;3.50;3.50;;;;;;;;5263224;28;8792;-74
2022/07/20 02:34:14;;;;;;;;;7.00;7.00;;;;;;;;5251893;28;8772;-74
2022/07/20 02:36:45;;;;;;;;;4.50;4.50;;;;;;;;5252453;28;9424;-74
2022/07/20 02:39:16;;;;;;;;;3.25;3.25;;;;;;;;5268757;28;8792;-75
2022/07/20 02:41:47;;;;;;;;;3.75;3.75;;;;;;;;5230535;28;8806;-76
2022/07/20 02:44:37;;;;;;;;;1.50;1.50;;;;;;;;5248857;28;8779;-75
2022/07/20 02:47:08;;;;;;;;;0.75;0.75;;;;;;;;5247675;28;8811;-77
2022/07/20 02:49:59;;;;;;;;;12.25;12.25;;;;;;;;5239444;28;8804;-76
2022/07/20 02:52:49;;;;;;;;;3.25;3.25;;;;;;;;5268802;28;8752;-75
2022/07/20 02:55:40;;;;;;;;;6.75;6.75;;;;;;;;5268649;28;8764;-74
2022/07/20 02:58:11;;;;;;;;;4.25;4.25;;;;;;;;5234896;28;8869;-74
2022/07/20 03:00:42;;;;;;;;;3.00;3.00;;;;;;;;5269380;28;8793;-74
2022/07/20 03:03:13;;;;;;;;;5.00;5.00;;;;;;;;5251395;28;8792;-74
2022/07/20 03:06:03;;;;;;;;;5.00;5.00;;;;;;;;5268370;28;12271;-74
2022/07/20 03:08:34;;;;;;;;;4.00;4.00;;;;;;;;5263051;28;9490;-74
2022/07/20 03:11:05;;;;;;;;;5.00;5.00;;;;;;;;5248095;28;8813;-75
2022/07/20 03:13:36;;;;;;;;;2.00;2.00;;;;;;;;5248425;28;8910;-75
2022/07/20 03:16:07;;;;;;;;;2.25;2.25;;;;;;;;5246999;28;8795;-75
2022/07/20 03:18:56;;;;;;;;;3.00;3.00;;;;;;;;5252901;28;8803;-76
2022/07/20 03:21:27;;;;;;;;;4.25;4.25;;;;;;;;5268010;28;8785;-76
2022/07/20 03:23:58;;;;;;;;;4.25;4.25;;;;;;;;5267731;28;8796;-74
2022/07/20 03:26:47;;;;;;;;;1.00;1.00;;;;;;;;5268053;28;8826;-73
2022/07/20 03:29:37;;;;;;;;;1.50;1.50;;;;;;;;5269167;28;8780;-73
2022/07/20 03:32:08;;;;;;;;;0.75;0.75;;;;;;;;5246194;28;8808;-75
2022/07/20 03:34:39;;;;;;;;;1.50;1.50;;;;;;;;5246565;28;8798;-75
2022/07/20 03:37:10;;;;;;;;;2.00;2.00;;;;;;;;5246673;28;8798;-75
2022/07/20 03:39:41;;;;;;;;;0.00;0.00;;;;;;;;5230136;28;9004;-74
2022/07/20 03:42:12;;;;;;;;;1.00;1.00;;;;;;;;5235354;28;8841;-74
2022/07/20 03:44:43;;;;;;;;;0.33;0.33;;;;;;;;5246673;28;8791;-73
2022/07/20 03:47:15;;;;;;;;;1.50;1.50;;;;;;;;5247422;28;11450;-72
2022/07/20 03:50:04;;;;;;;;;4.50;4.50;;;;;;;;5249941;28;8800;-74
2022/07/20 03:52:55;;;;;;;;;4.50;4.50;;;;;;;;5253339;28;8784;-76
2022/07/20 03:55:44;;;;;;;;;0.00;0.00;;;;;;;;5267636;28;8784;-77
2022/07/20 03:58:16;;;;;;;;;2.00;2.00;;;;;;;;5250105;28;8777;-77
2022/07/20 04:00:47;;;;;;;;;2.00;2.00;;;;;;;;5260841;28;8800;-78
2022/07/20 04:03:18;;;;;;;;;1.50;1.50;;;;;;;;5265604;28;9495;-75
2022/07/20 04:06:07;;;;;;;;;2.00;2.00;;;;;;;;5266180;28;8874;-74
2022/07/20 04:08:38;;;;;;;;;1.50;1.50;;;;;;;;5267159;28;8769;-75
2022/07/20 04:11:09;;;;;;;;;3.00;3.00;;;;;;;;5245773;28;8779;-75
2022/07/20 04:13:59;;;;;;;;;9.50;9.50;;;;;;;;5246058;28;8795;-77
2022/07/20 04:16:30;;;;;;;;;3.25;3.25;;;;;;;;5230003;28;8799;-77
2022/07/20 04:19:01;;;;;;;;;5.00;5.00;;;;;;;;5264892;28;8803;-77
2022/07/20 04:21:32;;;;;;;;;5.75;5.75;;;;;;;;5232616;28;8834;-74
2022/07/20 04:24:22;;;;;;;;;5.25;5.25;;;;;;;;5245631;28;8815;-75
2022/07/20 04:27:11;;;;;;;;;8.00;8.00;;;;;;;;5247327;28;8827;-76
2022/07/20 04:29:42;;;;;;;;;10.00;8.75;;;;;;;;5246257;28;9526;-74
2022/07/20 04:32:31;;;;;;;;;9.00;9.00;;;;;;;;5231610;28;8787;-77
2022/07/20 04:35:03;;;;;;;;;7.75;7.75;;;;;;;;5212084;28;8783;-76
2022/07/20 04:37:35;;;;;;;;;6.25;6.25;;;;;;;;5230735;28;8779;-74
2022/07/20 04:40:06;;;;;;;;;3.00;3.00;;;;;;;;5249884;28;8839;-75
2022/07/20 04:42:37;;;;;;;;;5.00;5.00;;;;;;;;5226700;28;8938;-69
2022/07/20 04:45:08;;;;;;;;;3.50;3.50;;;;;;;;5246302;28;8806;-70
2022/07/20 04:47:58;;;;;;;;;5.00;5.00;;;;;;;;5244359;28;8826;-70
2022/07/20 04:50:29;;;;;;;;;3.50;3.50;;;;;;;;5247728;28;8792;-70
2022/07/20 04:53:00;;;;;;;;;3.50;3.50;;;;;;;;5265690;28;8777;-70
2022/07/20 04:55:50;;;;;;;;;1.00;1.00;;;;;;;;5250194;28;8784;-70
2022/07/20 04:58:21;;;;;;;;;1.00;1.00;;;;;;;;5247675;28;9547;-71
2022/07/20 05:00:52;;;;;;;;;0.25;0.25;;;;;;;;5264251;28;9522;-71
2022/07/20 05:03:23;;;;;;;;;1.00;1.00;;;;;;;;5257261;28;8827;-70
2022/07/20 05:05:54;;;;;;;;;3.25;3.25;;;;;;;;5243270;28;8819;-70
2022/07/20 05:08:25;;;;;;;;;1.00;1.00;;;;;;;;5226715;28;8799;-70
2022/07/20 05:10:56;;;;;;;;;1.00;1.00;;;;;;;;5226741;28;8829;-71
2022/07/20 05:13:30;;;;;;;;;1.00;1.00;;;;;;;;5245105;28;8783;-71
2022/07/20 05:16:19;;;;;;;;;1.25;1.25;;;;;;;;5243296;28;8803;-70
2022/07/20 05:18:50;;;;;;;;;1.00;1.00;;;;;;;;5226362;28;8871;-70
2022/07/20 05:21:22;;;;;;;;;1.00;1.00;;;;;;;;5244397;28;8790;-71
2022/07/20 05:23:53;;;;;;;;;2.75;2.75;;;;;;;;5218336;28;8839;-70
2022/07/20 05:26:24;;;;;;;;;1.00;1.00;;;;;;;;5260127;28;9565;-70
2022/07/20 05:28:55;;;;;;;;;0.50;0.50;;;;;;;;5264361;28;9569;-71
2022/07/20 05:31:26;;;;;;;;;1.00;1.00;;;;;;;;5246991;28;8800;-71
2022/07/20 05:33:57;;;;;;;;;1.50;1.50;;;;;;;;5247066;28;8800;-70
2022/07/20 05:36:28;;;;;;;;;2.75;2.75;;;;;;;;5247254;28;8830;-70
2022/07/20 05:39:02;;;;;;;;;1.00;1.00;;;;;;;;5226162;28;8813;-71
2022/07/20 05:41:35;;;;;;;;;1.00;1.00;;;;;;;;5255992;28;8804;-70
2022/07/20 05:44:20;;;;;;;;;2.50;2.50;;;;;;;;5249590;28;8803;-71
2022/07/20 05:46:51;;;;;;;;;2.00;2.00;;;;;;;;5232335;28;8937;-70
2022/07/20 05:49:22;;;;;;;;;7.25;7.25;;;;;;;;5219966;28;8952;-70
2022/07/20 05:51:54;;;;;;;;;2.00;2.00;;;;;;;;5249004;28;8785;-71
2022/07/20 05:54:25;;;;;;;;;1.25;1.25;;;;;;;;5235138;28;8764;-70
2022/07/20 05:56:58;;;;;;;;;3.00;3.00;;;;;;;;5250701;28;8796;-72
2022/07/20 05:59:30;;;;;;;;;14.25;14.25;;;;;;;;5234963;28;8856;-72
2022/07/20 06:02:20;;;;;;;;;2.00;2.00;;;;;;;;5251591;28;8784;-73
2022/07/20 06:04:51;;;;;;;;;2.25;2.25;;;;;;;;5268382;28;8792;-71
2022/07/20 06:07:22;;;;;;;;;3.00;3.00;;;;;;;;5246789;28;9640;-72
2022/07/20 06:09:54;;;;;;;;;5.00;5.00;;;;;;;;5255863;28;8804;-71
2022/07/20 06:12:25;;;;;;;;;4.00;4.00;;;;;;;;5261754;28;8801;-71
2022/07/20 06:14:56;;;;;;;;;4.00;4.00;;;;;;;;5241666;28;8810;-70
2022/07/20 06:17:36;;;;;;;;;4.75;4.75;;;;;;;;5237442;28;8785;-72
2022/07/20 06:20:09;;;;;;;;;3.00;3.00;;;;;;;;5249780;28;8787;-71
2022/07/20 06:22:41;;;;;;;;;5.00;4.75;;;;;;;;5248391;28;9648;-70
2022/07/20 06:25:13;;;;;;;;;4.75;4.75;;;;;;;;5247903;28;8892;-71
2022/07/20 06:27:44;;;;;;;;;3.75;3.75;;;;;;;;5231616;28;9533;-71
2022/07/20 06:30:15;;;;;;;;;6.00;6.00;;;;;;;;5237244;28;8805;-72
2022/07/20 06:32:46;;;;;;;;;14.00;14.00;;;;;;;;5254629;28;8791;-71
2022/07/20 06:35:17;;;;;;;;;3.25;3.25;;;;;;;;5275202;28;8807;-71
2022/07/20 06:37:53;;;;;;;;;2.25;2.25;;;;;;;;5256951;28;8800;-72
2022/07/20 06:40:24;;;;;;;;;0.50;0.50;;;;;;;;5251086;28;8837;-71
2022/07/20 06:42:55;;;;;;;;;2.75;2.75;;;;;;;;5231489;28;8783;-71
2022/07/20 06:45:27;;;;;;;;;3.00;3.00;;;;;;;;5231260;28;8841;-71
2022/07/20 06:47:58;;;;;;;;;3.00;3.00;;;;;;;;5265307;28;9516;-71
2022/07/20 06:50:29;;;;;;;;;1.00;1.00;;;;;;;;5230687;28;8782;-73
2022/07/20 06:53:00;;;;;;;;;1.75;1.75;;;;;;;;5230792;28;8800;-72
2022/07/20 06:55:31;;;;;;;;;1.00;1.00;;;;;;;;5247802;28;8790;-73
2022/07/20 06:58:02;;;;;;;;;2.50;2.50;;;;;;;;5263937;28;8803;-71
2022/07/20 07:00:34;;;;;;;;;3.00;3.00;;;;;;;;5214310;28;8782;-71
2022/07/20 07:03:05;;;;;;;;;3.50;3.50;;;;;;;;5246882;28;8814;-72
2022/07/20 07:05:36;;;;;;;;;4.50;4.50;;;;;;;;5248667;28;9521;-72
2022/07/20 07:08:08;;;;;;;;;1.00;1.00;;;;;;;;5229987;28;8822;-72
2022/07/20 07:10:39;;;;;;;;;3.75;3.75;;;;;;;;5244090;28;8872;-70
2022/07/20 07:13:13;;;;;;;;;3.50;3.50;;;;;;;;5230479;28;8885;-71
2022/07/20 07:15:51;;;;;;;;;2.00;2.00;;;;;;;;5258742;28;8823;-72
2022/07/20 07:18:23;;;;;;;;;4.00;4.00;;;;;;;;5250403;28;8819;-73
2022/07/20 07:20:55;;;;;;;;;3.75;3.75;;;;;;;;5256021;28;8812;-70
2022/07/20 07:23:27;;;;;;;;;3.00;3.00;;;;;;;;5250544;28;8824;-72
2022/07/20 07:25:59;;;;;;;;;3.25;3.25;;;;;;;;5217372;28;8821;-72
2022/07/20 07:28:31;;;;;;;;;3.25;3.25;;;;;;;;5224569;28;8818;-71
2022/07/20 07:31:03;;;;;;;;;2.25;2.25;;;;;;;;5245377;28;9614;-71
2022/07/20 07:33:35;;;;;;;;;2.00;2.00;;;;;;;;5216311;28;9534;-71
2022/07/20 07:36:07;;;;;;;;;1.75;1.75;;;;;;;;5239786;28;8821;-71
2022/07/20 07:38:42;;;;;;;;;2.75;2.75;;;;;;;;5246378;28;8807;-71
2022/07/20 07:41:14;;;;;;;;;6.50;6.50;;;;;;;;5248412;28;8815;-72
2022/07/20 07:43:46;;;;;;;;;4.75;4.75;;;;;;;;5229884;28;8795;-72
2022/07/20 07:46:17;;;;;;;;;4.00;4.00;;;;;;;;5246125;28;8806;-71
2022/07/20 07:48:49;;;;;;;;;4.50;4.50;;;;;;;;5213085;28;8794;-72
2022/07/20 07:51:20;;;;;;;;;6.75;6.75;;;;;;;;5247287;28;8775;-70
2022/07/20 07:53:51;;;;;;;;;3.75;3.75;;;;;;;;5245883;28;8788;-70
2022/07/20 07:56:24;;;;;;;;;3.00;3.00;;;;;;;;5246003;28;8881;-71
2022/07/20 07:58:55;;;;;;;;;3.00;3.00;;;;;;;;5255798;28;8833;-71
2022/07/20 08:01:26;;;;;;;;;8.50;8.50;;;;;;;;5229574;28;8795;-71
2022/07/20 08:04:16;;;;;;;;;6.00;6.00;;;;;;;;5262831;28;8824;-71
2022/07/20 08:06:49;;;;;;;;;5.00;5.00;;;;;;;;5247773;28;8874;-71
2022/07/20 08:09:20;;;;;;;;;2.50;2.50;;;;;;;;5249854;28;8804;-72
2022/07/20 08:12:10;;;;;;;;;3.00;3.00;;;;;;;;5252978;28;8773;-71
2022/07/20 08:14:42;;;;;;;;;2.25;2.25;;;;;;;;5249646;28;8785;-71
2022/07/20 08:17:13;;;;;;;;;3.75;3.75;;;;;;;;5266572;28;8857;-71
2022/07/20 08:19:45;;;;;;;;;4.33;4.33;;;;;;;;5265886;28;8800;-70
2022/07/20 08:22:19;;;;;;;;;5.00;5.00;;;;;;;;5252691;28;8818;-70
2022/07/20 08:24:50;;;;;;;;;4.00;4.00;;;;;;;;5252696;28;8823;-70
2022/07/20 08:27:39;;;;;;;;;3.00;3.00;;;;;;;;5245446;28;9448;-71
2022/07/20 08:30:10;;;;;;;;;4.25;4.25;;;;;;;;5212308;28;8787;-71
2022/07/20 08:32:42;;;;;;;;;9.25;9.25;;;;;;;;5228486;28;8817;-70
2022/07/20 08:35:13;;;;;;;;;7.00;7.00;;;;;;;;5245412;28;8807;-70
2022/07/20 08:37:44;;;;;;;;;4.25;4.25;;;;;;;;5213805;28;8827;-71
2022/07/20 08:40:16;;;;;;;;;6.00;6.00;;;;;;;;5259962;28;8799;-71
2022/07/20 08:42:50;;;;;;;;;7.50;7.50;;;;;;;;5230786;28;9968;-71
2022/07/20 08:45:21;;;;;;;;;6.25;6.25;;;;;;;;5261512;28;8797;-70
2022/07/20 08:47:53;;;;;;;;;14.00;13.25;;;;;;;;5245267;28;8846;-71
2022/07/20 08:50:26;;;;;;;;;7.75;7.75;;;;;;;;5245383;28;8872;-71
2022/07/20 08:52:58;;;;;;;;;5.25;5.25;;;;;;;;5244907;28;8806;-71
2022/07/20 08:55:33;;;;;;;;;5.00;5.00;;;;;;;;5256784;28;8809;-71
2022/07/20 08:58:04;;;;;;;;;5.00;5.00;;;;;;;;5228802;28;8856;-71
2022/07/20 09:00:35;;;;;;;;;6.50;6.50;;;;;;;;5232351;28;8816;-72
2022/07/20 09:03:07;;;;;;;;;6.25;6.25;;;;;;;;5251875;28;9496;-70
2022/07/20 09:05:39;;;;;;;;;7.00;7.00;;;;;;;;5286897;28;8798;-70
2022/07/20 09:08:12;;;;;;;;;7.25;7.25;;;;;;;;5269646;28;8957;-70
2022/07/20 09:10:46;;;;;;;;;5.50;5.50;;;;;;;;5269950;28;8798;-71
2022/07/20 09:13:18;;;;;;;;;8.50;8.50;;;;;;;;5269897;28;8782;-71
2022/07/20 09:15:52;;;;;;;;;12.75;12.75;;;;;;;;5252853;28;8778;-71
2022/07/20 09:18:27;;;;;;;;;5.00;5.00;;;;;;;;5236807;28;8852;-71
2022/07/20 09:21:05;;;;;;;;;3.50;3.50;;;;;;;;5229239;28;8789;-71
2022/07/20 09:23:42;;;;;;;;;3.75;3.75;;;;;;;;5249759;28;8833;-71
2022/07/20 09:26:15;;;;;;;;;11.75;11.75;;;;;;;;5236021;28;8858;-71
2022/07/20 09:28:50;;;;;;;;;4.25;4.25;;;;;;;;5253513;28;8810;-72
2022/07/20 09:31:35;;;;;;;;;4.00;4.00;;;;;;;;5221054;28;8789;-71
2022/07/20 09:34:13;;;;;;;;;6.00;6.00;;;;;;;;5252727;28;8801;-72
2022/07/20 09:36:46;;;;;;;;;3.50;3.50;;;;;;;;5236640;28;8796;-71
2022/07/20 09:39:20;;;;;;;;;3.00;3.00;;;;;;;;5233000;28;8812;-70
2022/07/20 09:41:59;;;;;;;;;3.50;3.50;;;;;;;;5251470;28;8789;-71
2022/07/20 09:44:48;;;;;;;;;3.50;3.50;;;;;;;;5269262;28;8817;-71
2022/07/20 09:47:19;;;;;;;;;2.00;2.00;;;;;;;;5250657;28;9639;-70
2022/07/20 09:49:50;;;;;;;;;3.25;3.25;;;;;;;;5267602;28;9872;-71
2022/07/20 09:52:21;;;;;;;;;4.00;4.00;;;;;;;;5245840;28;8818;-72
2022/07/20 09:54:52;;;;;;;;;4.25;4.25;;;;;;;;5246643;28;10119;-71
2022/07/20 09:57:24;;;;;;;;;15.67;15.67;;;;;;;;5255836;28;8855;-72
2022/07/20 09:59:55;;;;;;;;;12.75;12.75;;;;;;;;5257225;28;9987;-71
2022/07/20 10:02:27;;;;;;;;;4.25;4.25;;;;;;;;5245762;28;8820;-72
2022/07/20 10:04:59;;;;;;;;;2.50;2.50;;;;;;;;5226424;28;8795;-71
2022/07/20 10:07:31;;;;;;;;;4.50;4.50;;;;;;;;5212885;28;8827;-72
2022/07/20 10:10:01;;;;;;;;;0.00;0.00;;;;;;;;5246515;28;8810;-72
2022/07/20 10:12:33;;;;;;;;;2.50;2.50;;;;;;;;5213120;28;9584;-72
2022/07/20 10:15:07;;;;;;;;;3.50;3.50;;;;;;;;5229128;28;8787;-72
2022/07/20 10:17:39;;;;;;;;;3.00;3.00;;;;;;;;5234952;28;9573;-72
2022/07/20 10:20:32;;;;;;;;;6.00;6.00;;;;;;;;5244264;28;8797;-70
2022/07/20 10:23:26;;;;;;;;;8.25;8.25;;;;;;;;5245568;28;8827;-71
2022/07/20 10:26:25;;;;;;;;;9.75;9.50;;;;;;;;5233065;28;8819;-73
2022/07/20 10:29:44;;;;;;;;;4.00;4.00;;;;;;;;5245846;28;9529;-69
2022/07/20 10:32:23;;;;;;;;;3.50;3.50;;;;;;;;5238106;28;8799;-69
2022/07/20 10:34:55;;;;;;;;;4.25;4.25;;;;;;;;5233458;28;8819;-71
2022/07/20 10:37:46;;;;;;;;;3.00;3.00;;;;;;;;5244367;28;8812;-69
2022/07/20 10:40:21;;;;;;;;;0.00;0.00;;;;;;;;5252336;28;8815;-70
2022/07/20 10:43:10;;;;;;;;;4.75;4.75;;;;;;;;5251837;28;8796;-69
2022/07/20 10:45:42;;;;;;;;;2.25;2.25;;;;;;;;5235191;28;8792;-69
2022/07/20 10:48:16;;;;;;;;;6.50;6.25;;;;;;;;5268060;28;8820;-70
2022/07/20 10:50:52;;;;;;;;;2.75;2.75;;;;;;;;5269696;28;8789;-70
2022/07/20 10:53:41;;;;;;;;;6.00;6.00;;;;;;;;5248460;28;8799;-71
2022/07/20 10:56:12;;;;;;;;;4.75;4.75;;;;;;;;5230494;28;9608;-70
2022/07/20 10:58:43;;;;;;;;;11.75;11.75;;;;;;;;5246908;28;8807;-70
2022/07/20 11:01:15;;;;;;;;;6.25;6.25;;;;;;;;5213669;28;8848;-70
2022/07/20 11:03:48;;;;;;;;;5.75;5.75;;;;;;;;5214248;28;8791;-70
2022/07/20 11:06:20;;;;;;;;;4.25;4.25;;;;;;;;5230513;28;8827;-70
2022/07/20 11:08:52;;;;;;;;;5.00;5.00;;;;;;;;5230292;28;9508;-70
2022/07/20 11:11:42;;;;;;;;;10.00;10.00;;;;;;;;5233261;28;9540;-71
2022/07/20 11:14:15;;;;;;;;;6.00;6.00;;;;;;;;5247243;28;8795;-71
2022/07/20 11:16:53;;;;;;;;;5.00;4.50;;;;;;;;5231313;28;8813;-71
2022/07/20 11:19:27;;;;;;;;;4.00;4.00;;;;;;;;5234310;28;8784;-72
2022/07/20 11:21:58;;;;;;;;;7.00;7.00;;;;;;;;5250863;28;8803;-71
2022/07/20 11:24:29;;;;;;;;;9.25;9.25;;;;;;;;5251357;28;8792;-71
2022/07/20 11:27:21;;;;;;;;;5.00;5.00;;;;;;;;5250854;28;8824;-71
2022/07/20 11:29:52;;;;;;;;;1.00;1.00;;;;;;;;5250458;28;8792;-70
2022/07/20 11:32:27;;;;;;;;;4.50;4.50;;;;;;;;5243338;28;9428;-70
2022/07/20 11:35:00;;;;;;;;;3.25;3.25;;;;;;;;5231605;28;8807;-71
2022/07/20 11:37:33;;;;;;;;;5.25;5.25;;;;;;;;5223512;28;8828;-71
2022/07/20 11:40:05;;;;;;;;;24.00;22.33;;;;;;;;5252424;28;8815;-70
2022/07/20 11:43:05;;;;;;;;;18.75;15.75;;;;;;;;5233619;28;10955;-71
2022/07/20 11:45:37;;;;;;;;;6.25;6.25;;;;;;;;5230946;28;8808;-72
2022/07/20 11:48:35;;;;;;;;;4.00;4.00;;;;;;;;5253721;28;8865;-71
2022/07/20 11:51:07;;;;;;;;;7.50;7.50;;;;;;;;5230823;28;8800;-70
2022/07/20 11:53:40;;;;;;;;;8.00;7.00;;;;;;;;5266479;28;8764;-70
2022/07/20 11:56:12;;;;;;;;;13.25;13.25;;;;;;;;5249444;28;8792;-70
2022/07/20 11:58:45;;;;;;;;;5.50;5.50;;;;;;;;5246946;28;8830;-70
2022/07/20 12:01:42;;;;;;;;;5.00;5.00;;;;;;;;5244934;28;8806;-71
2022/07/20 12:04:15;;;;;;;;;6.00;6.00;;;;;;;;5219538;28;8849;-71
2022/07/20 12:06:46;;;;;;;;;4.25;4.25;;;;;;;;5261506;28;8838;-71
2022/07/20 12:09:18;;;;;;;;;16.25;16.25;;;;;;;;5261623;28;8806;-70
2022/07/20 12:11:56;;;;;;;;;27.50;27.50;;;;;;;;5244764;28;8791;-71
2022/07/20 12:14:29;;;;;;;;;31.75;30.75;;;;;;;;5256303;28;8804;-70
2022/07/20 12:17:16;;;;;;;;;45.80;39.20;;;;;;;;5249827;28;8788;-70
2022/07/20 12:19:49;;;;;;;;;29.25;29.25;;;;;;;;5249351;28;8802;-71
2022/07/20 12:22:30;;;;;;;;;30.75;28.00;;;;;;;;5250001;28;8777;-71
2022/07/20 12:25:06;;;;;;;;;36.00;33.00;;;;;;;;5266310;28;8789;-71
2022/07/20 12:27:39;;;;;;;;;51.40;43.40;;;;;;;;5266328;28;8820;-71
2022/07/20 12:30:31;;;;;;;;;30.60;30.00;;;;;;;;5266165;28;8780;-71
2022/07/20 12:33:07;;;;;;;;;41.00;35.60;;;;;;;;5232976;28;8939;-72
2022/07/20 12:35:46;;;;;;;;;14.25;14.25;;;;;;;;5249799;28;8800;-70
2022/07/20 12:38:36;;;;;;;;;6.75;6.75;;;;;;;;5252186;28;8768;-72
2022/07/20 12:41:12;;;;;;;;;9.75;9.75;;;;;;;;5250880;28;8871;-72
2022/07/20 12:44:20;;;;;;;;;15.75;15.75;;;;;;;;5231337;28;8767;-71
2022/07/20 12:46:52;;;;;;;;;16.25;16.25;;;;;;;;5228099;28;8892;-72
2022/07/20 12:49:25;;;;;;;;;14.00;14.00;;;;;;;;5245087;28;8977;-71
2022/07/20 12:51:56;;;;;;;;;17.00;17.00;;;;;;;;5211837;28;8802;-71
2022/07/20 12:54:28;;;;;;;;;13.75;13.75;;;;;;;;5212274;28;8852;-71
2022/07/20 12:56:59;;;;;;;;;8.00;8.00;;;;;;;;5228525;28;8782;-70
2022/07/20 12:59:31;;;;;;;;;8.00;8.00;;;;;;;;5217170;28;8819;-71
2022/07/20 13:02:02;;;;;;;;;6.25;6.25;;;;;;;;5228120;28;8857;-72
2022/07/20 13:04:33;;;;;;;;;3.50;3.50;;;;;;;;5230918;28;8805;-72
2022/07/20 13:07:22;;;;;;;;;3.25;3.25;;;;;;;;5264217;28;9707;-71
2022/07/20 13:09:53;;;;;;;;;3.00;3.00;;;;;;;;5232709;28;8951;-72
2022/07/20 13:12:42;;;;;;;;;4.00;4.00;;;;;;;;5266783;28;8869;-70
2022/07/20 13:15:14;;;;;;;;;3.00;3.00;;;;;;;;5228155;28;8795;-70
2022/07/20 13:17:45;;;;;;;;;2.00;2.00;;;;;;;;5244943;28;8814;-72
2022/07/20 13:20:16;;;;;;;;;2.00;2.00;;;;;;;;5244649;28;9485;-72
2022/07/20 13:22:47;;;;;;;;;3.00;3.00;;;;;;;;5244028;28;8865;-71
2022/07/20 13:25:18;;;;;;;;;4.50;4.50;;;;;;;;5242606;28;8842;-72
2022/07/20 13:27:50;;;;;;;;;6.50;6.50;;;;;;;;5245899;28;8925;-71
2022/07/20 13:30:23;;;;;;;;;6.50;6.50;;;;;;;;5211791;28;8807;-72
2022/07/20 13:32:54;;;;;;;;;5.00;5.00;;;;;;;;5237517;28;9615;-71
2022/07/20 13:35:47;;;;;;;;;5.25;5.25;;;;;;;;5231194;28;8791;-71
2022/07/20 13:38:18;;;;;;;;;4.00;4.00;;;;;;;;5244599;28;9563;-71
2022/07/20 13:40:52;;;;;;;;;4.00;4.00;;;;;;;;5244506;28;8872;-71
2022/07/20 13:43:23;;;;;;;;;3.00;3.00;;;;;;;;5261063;28;8805;-71
2022/07/20 13:45:56;;;;;;;;;5.25;5.25;;;;;;;;5261654;28;9550;-71
2022/07/20 13:48:30;;;;;;;;;5.00;5.00;;;;;;;;5255951;28;8840;-72
2022/07/20 13:51:01;;;;;;;;;0.50;0.50;;;;;;;;5209626;28;8783;-72
2022/07/20 13:53:32;;;;;;;;;3.75;3.75;;;;;;;;5226174;28;9577;-71
2022/07/20 13:56:04;;;;;;;;;5.25;5.25;;;;;;;;5229504;28;8780;-71
2022/07/20 13:58:38;;;;;;;;;4.25;4.25;;;;;;;;5245675;28;9560;-71
2022/07/20 14:01:12;;;;;;;;;2.75;2.75;;;;;;;;5247300;28;8777;-71
2022/07/20 14:03:43;;;;;;;;;1.00;1.00;;;;;;;;5228181;28;8791;-71
2022/07/20 14:06:14;;;;;;;;;0.75;0.75;;;;;;;;5226556;28;9626;-71
2022/07/20 14:08:57;;;;;;;;;0.00;0.00;;;;;;;;5251145;28;8851;-70
2022/07/20 14:11:28;;;;;;;;;1.00;1.00;;;;;;;;5243660;28;8783;-71
2022/07/20 14:14:18;;;;;;;;;0.00;0.00;;;;;;;;5248969;28;8806;-71
2022/07/20 14:17:11;;;;;;;;;0.00;0.00;;;;;;;;5270603;28;8796;-71
2022/07/20 14:19:43;;;;;;;;;0.50;0.50;;;;;;;;5262338;28;8836;-71
2022/07/20 14:22:38;;;;;;;;;3.50;3.50;;;;;;;;5259636;28;8961;-70
2022/07/20 14:25:09;;;;;;;;;0.00;0.00;;;;;;;;5253230;28;8810;-71
2022/07/20 14:27:41;;;;;;;;;1.00;1.00;;;;;;;;5250465;28;9561;-71
2022/07/20 14:30:16;;;;;;;;;0.75;0.75;;;;;;;;5248505;28;8779;-71
2022/07/20 14:32:46;;;;;;;;;1.00;1.00;;;;;;;;5221732;28;8799;-70
2022/07/20 14:35:45;;;;;;;;;4.75;4.75;;;;;;;;5235820;28;9507;-70
2022/07/20 14:38:36;;;;;;;;;3.00;3.00;;;;;;;;5251540;28;8792;-71
2022/07/20 14:41:28;;;;;;;;;0.00;0.00;;;;;;;;5252557;28;8804;-71
2022/07/20 14:44:17;;;;;;;;;6.50;5.50;;;;;;;;5245013;28;8942;-70
2022/07/20 14:47:07;;;;;;;;;8.75;8.75;;;;;;;;5240662;28;8820;-70
2022/07/20 14:49:38;;;;;;;;;6.25;6.25;;;;;;;;5251336;28;8781;-70
2022/07/20 14:52:10;;;;;;;;;9.00;9.00;;;;;;;;5252052;28;8787;-71
2022/07/20 14:54:41;;;;;;;;;7.25;7.25;;;;;;;;5229677;28;8779;-70
2022/07/20 14:57:12;;;;;;;;;7.00;7.00;;;;;;;;5214137;28;9490;-70
2022/07/20 14:59:43;;;;;;;;;5.50;5.50;;;;;;;;5247375;28;8790;-70
2022/07/20 15:02:14;;;;;;;;;20.00;20.00;;;;;;;;5224626;28;8934;-70
2022/07/20 15:04:45;;;;;;;;;10.00;10.00;;;;;;;;5221392;28;9426;-71
2022/07/20 15:07:25;;;;;;;;;5.00;5.00;;;;;;;;5230526;28;8837;-70
2022/07/20 15:09:56;;;;;;;;;20.00;20.00;;;;;;;;5240595;28;8821;-71
2022/07/20 15:12:27;;;;;;;;;17.33;16.67;;;;;;;;5247196;28;8795;-70
2022/07/20 15:14:58;;;;;;;;;8.00;8.00;;;;;;;;5240660;28;11604;-71
2022/07/20 15:17:29;;;;;;;;;7.50;7.50;;;;;;;;5265768;28;8793;-71
2022/07/20 15:20:04;;;;;;;;;5.50;5.50;;;;;;;;5248789;28;8831;-71
2022/07/20 15:22:38;;;;;;;;;2.75;2.75;;;;;;;;5245434;28;8807;-71
2022/07/20 15:25:10;;;;;;;;;3.00;3.00;;;;;;;;5245780;28;8840;-71
2022/07/20 15:28:00;;;;;;;;;2.00;2.00;;;;;;;;5232236;28;8842;-70
2022/07/20 15:30:32;;;;;;;;;4.00;4.00;;;;;;;;5229475;28;9470;-69
2022/07/20 15:33:33;;;;;;;;;4.50;4.50;;;;;;;;5229432;28;8853;-70
2022/07/20 15:36:04;;;;;;;;;3.25;3.25;;;;;;;;5229942;28;9620;-70
2022/07/20 15:38:39;;;;;;;;;4.75;4.75;;;;;;;;5230051;28;8847;-70
2022/07/20 15:41:10;;;;;;;;;4.75;4.75;;;;;;;;5229318;28;8806;-71
2022/07/20 15:43:43;;;;;;;;;3.00;3.00;;;;;;;;5246430;28;8791;-71
2022/07/20 15:46:15;;;;;;;;;1.25;1.25;;;;;;;;5246240;28;8814;-72